Time;durP1;ratioP1;P1;durP2;ratioP2;P2;SDS_P1;SDS_P2;PMS_P1;PMS_P2;Temp;Humidity;BMP_temperature;BMP_pressure;BME280_temperature;BME280_humidity;BME280_pressure;Samples;Min_cycle;Max_cycle;Signal;HPM_P1;HPM_P2
2021/03/04 00:00:36;;;;;;;13.90;9.20;;;9.20;99.90;;;;;;4991527;28;20202;-67
2021/03/04 00:03:04;;;;;;;11.17;9.43;;;9.20;99.90;;;;;;4984237;28;20522;-67
2021/03/04 00:05:29;;;;;;;12.60;9.60;;;9.20;99.90;;;;;;4991279;28;20208;-67
2021/03/04 00:07:56;;;;;;;15.50;11.20;;;9.20;99.90;;;;;;4989344;28;21012;-67
2021/03/04 00:10:22;;;;;;;14.70;9.90;;;9.20;99.90;;;;;;5003459;28;20612;-66
2021/03/04 00:12:48;;;;;;;21.33;10.17;;;9.20;99.90;;;;;;5007957;28;20520;-67
2021/03/04 00:15:16;;;;;;;12.87;10.13;;;9.30;99.90;;;;;;4995642;28;20465;-67
2021/03/04 00:17:44;;;;;;;11.30;9.70;;;9.30;99.90;;;;;;4991972;28;20458;-67
2021/03/04 00:20:13;;;;;;;16.53;9.70;;;9.30;99.90;;;;;;5004178;28;20450;-67
2021/03/04 00:22:39;;;;;;;14.23;9.47;;;9.40;99.90;;;;;;4982221;28;20442;-67
2021/03/04 00:25:06;;;;;;;12.10;9.77;;;9.40;99.90;;;;;;5001651;28;20840;-66
2021/03/04 00:27:31;;;;;;;12.13;9.10;;;9.40;99.90;;;;;;5001717;28;20451;-67
2021/03/04 00:29:57;;;;;;;11.70;8.77;;;9.50;99.90;;;;;;5004019;28;20801;-67
2021/03/04 00:32:23;;;;;;;13.13;9.43;;;9.40;99.90;;;;;;4994338;28;20231;-67
2021/03/04 00:34:48;;;;;;;21.83;9.30;;;9.40;99.90;;;;;;4995053;28;20438;-67
2021/03/04 00:37:14;;;;;;;12.43;7.83;;;9.40;99.90;;;;;;5011141;28;20175;-67
2021/03/04 00:39:40;;;;;;;15.70;8.50;;;9.40;99.90;;;;;;5000779;28;20559;-67
2021/03/04 00:42:06;;;;;;;10.70;9.10;;;9.40;99.90;;;;;;4993130;28;20638;-67
2021/03/04 00:44:32;;;;;;;12.70;9.60;;;9.40;99.90;;;;;;4988034;28;20175;-67
2021/03/04 00:46:57;;;;;;;10.73;9.37;;;9.40;99.90;;;;;;4995259;28;20512;-67
2021/03/04 00:49:23;;;;;;;10.60;8.30;;;9.40;99.90;;;;;;5006250;28;20219;-67
2021/03/04 00:51:48;;;;;;;12.53;10.47;;;9.30;99.90;;;;;;4991731;28;20341;-67
2021/03/04 00:54:14;;;;;;;13.50;8.37;;;9.30;99.90;;;;;;4980890;28;20176;-66
2021/03/04 00:56:40;;;;;;;10.37;8.50;;;9.30;99.90;;;;;;5004197;28;20175;-66
2021/03/04 00:59:05;;;;;;;15.37;8.10;;;9.40;99.90;;;;;;4998293;28;20205;-67
2021/03/04 01:01:31;;;;;;;10.40;7.97;;;9.40;99.90;;;;;;4993814;28;20179;-67
2021/03/04 01:03:57;;;;;;;13.37;9.70;;;9.40;99.90;;;;;;5000110;28;20548;-67
2021/03/04 01:06:22;;;;;;;8.70;7.87;;;9.40;99.90;;;;;;5005313;28;20468;-67
2021/03/04 01:08:48;;;;;;;13.80;9.57;;;9.30;99.90;;;;;;5003868;28;20194;-67
2021/03/04 01:11:15;;;;;;;11.10;8.57;;;9.40;99.90;;;;;;4984052;28;20549;-67
2021/03/04 01:13:41;;;;;;;12.77;9.00;;;9.40;99.90;;;;;;5009803;28;20430;-66
2021/03/04 01:16:07;;;;;;;10.93;8.90;;;9.40;99.90;;;;;;5005930;28;20541;-67
2021/03/04 01:18:33;;;;;;;17.50;9.20;;;9.40;99.90;;;;;;5009055;28;20541;-67
2021/03/04 01:20:59;;;;;;;11.13;8.17;;;9.40;99.90;;;;;;4982259;28;20190;-66
2021/03/04 01:23:25;;;;;;;10.37;9.27;;;9.40;99.90;;;;;;4986365;28;20443;-67
2021/03/04 01:25:51;;;;;;;11.50;9.60;;;9.40;99.90;;;;;;4996934;28;20194;-66
2021/03/04 01:28:16;;;;;;;12.37;9.73;;;9.40;99.90;;;;;;4998521;28;20854;-66
2021/03/04 01:30:42;;;;;;;12.00;8.63;;;9.40;99.90;;;;;;4990791;28;20274;-67
2021/03/04 01:33:08;;;;;;;12.57;9.57;;;9.40;99.90;;;;;;4997702;28;20254;-67
2021/03/04 01:35:33;;;;;;;11.27;9.17;;;9.30;99.90;;;;;;4994282;28;20193;-67
2021/03/04 01:37:59;;;;;;;11.63;10.10;;;9.20;99.90;;;;;;4995663;28;20734;-66
2021/03/04 01:40:24;;;;;;;12.20;9.23;;;9.10;99.90;;;;;;4997938;28;20172;-67
2021/03/04 01:42:50;;;;;;;12.50;9.80;;;9.10;99.90;;;;;;4996785;28;20230;-67
2021/03/04 01:45:17;;;;;;;12.77;9.10;;;9.00;99.90;;;;;;5000810;28;20612;-67
2021/03/04 01:47:47;;;;;;;11.73;8.33;;;9.00;99.90;;;;;;4993806;28;20183;-67
2021/03/04 01:50:14;;;;;;;12.17;8.70;;;9.00;99.90;;;;;;4992141;28;20443;-66
2021/03/04 01:52:39;;;;;;;11.10;9.13;;;9.00;99.90;;;;;;5007414;28;20827;-67
2021/03/04 01:55:05;;;;;;;9.50;8.60;;;9.00;99.90;;;;;;4993547;28;20422;-67
2021/03/04 01:57:32;;;;;;;11.40;8.60;;;9.00;99.90;;;;;;4994767;28;20184;-67
2021/03/04 01:59:58;;;;;;;10.70;8.30;;;9.00;99.90;;;;;;5001488;28;20481;-67
2021/03/04 02:02:24;;;;;;;10.60;8.73;;;9.00;99.90;;;;;;4991962;28;21195;-67
2021/03/04 02:04:51;;;;;;;12.97;8.93;;;9.10;99.90;;;;;;4993053;28;20521;-67
2021/03/04 02:07:33;;;;;;;11.20;8.17;;;9.10;99.90;;;;;;5008704;28;20893;-67
2021/03/04 02:10:10;;;;;;;10.23;8.53;;;9.00;99.90;;;;;;5007175;28;20817;-67
2021/03/04 02:12:59;;;;;;;12.77;8.73;;;9.00;99.90;;;;;;5005048;28;20476;-67
2021/03/04 02:15:37;;;;;;;13.67;8.70;;;8.90;99.90;;;;;;5002337;28;20937;-67
2021/03/04 02:18:06;;;;;;;10.33;8.10;;;8.90;99.90;;;;;;5006576;28;20603;-67
2021/03/04 02:20:41;;;;;;;16.40;9.70;;;8.90;99.90;;;;;;4985083;28;20434;-67
2021/03/04 02:23:32;;;;;;;13.57;9.10;;;8.80;99.90;;;;;;4999297;28;20535;-67
2021/03/04 02:26:23;;;;;;;10.87;8.90;;;8.70;99.90;;;;;;4988604;28;20430;-67
2021/03/04 02:28:51;;;;;;;13.43;8.70;;;8.60;99.90;;;;;;5001098;28;20466;-66
2021/03/04 02:31:18;;;;;;;11.33;9.77;;;8.60;99.90;;;;;;4993970;28;20496;-67
2021/03/04 02:33:46;;;;;;;13.10;8.00;;;8.50;99.90;;;;;;4999140;28;20448;-66
2021/03/04 02:36:12;;;;;;;10.73;8.70;;;8.60;99.90;;;;;;4986778;28;20438;-67
2021/03/04 02:38:38;;;;;;;11.83;8.80;;;8.60;99.90;;;;;;4993685;28;20524;-67
2021/03/04 02:41:05;;;;;;;10.57;8.47;;;8.50;99.90;;;;;;5004302;28;20206;-67
2021/03/04 02:43:32;;;;;;;10.33;7.63;;;8.60;99.90;;;;;;4980575;28;20493;-67
2021/03/04 02:45:58;;;;;;;10.17;7.97;;;8.60;99.90;;;;;;5013056;28;20774;-67
2021/03/04 02:48:25;;;;;;;9.87;8.53;;;8.70;99.90;;;;;;4996419;28;20481;-67
2021/03/04 02:50:52;;;;;;;8.83;7.93;;;8.70;99.90;;;;;;4991630;28;20442;-66
2021/03/04 02:53:17;;;;;;;13.90;8.87;;;8.60;99.90;;;;;;5003178;28;21031;-67
2021/03/04 02:55:44;;;;;;;15.23;8.97;;;8.60;99.90;;;;;;4993314;28;20537;-67
2021/03/04 02:58:12;;;;;;;12.97;8.80;;;8.70;99.90;;;;;;5006410;28;20694;-67
2021/03/04 03:00:39;;;;;;;15.10;9.83;;;8.70;99.90;;;;;;5006661;28;20515;-66
2021/03/04 03:03:11;;;;;;;10.70;7.87;;;8.70;99.90;;;;;;4989000;28;20441;-66
2021/03/04 03:05:38;;;;;;;10.07;8.80;;;8.80;99.90;;;;;;5001677;28;20936;-67
2021/03/04 03:08:05;;;;;;;9.90;8.90;;;8.70;99.90;;;;;;5001527;28;20459;-67
2021/03/04 03:10:31;;;;;;;12.87;9.43;;;8.70;99.90;;;;;;4994497;28;20518;-67
2021/03/04 03:12:58;;;;;;;14.10;9.57;;;8.70;99.90;;;;;;5004163;28;20971;-67
2021/03/04 03:15:25;;;;;;;11.03;9.90;;;8.70;99.90;;;;;;4994793;28;20446;-67
2021/03/04 03:17:51;;;;;;;13.30;8.03;;;8.70;99.90;;;;;;4990258;28;20880;-67
2021/03/04 03:20:19;;;;;;;8.93;7.77;;;8.70;99.90;;;;;;4978054;28;20529;-66
2021/03/04 03:22:46;;;;;;;9.83;7.43;;;8.80;99.90;;;;;;5001164;28;20449;-67
2021/03/04 03:25:13;;;;;;;8.90;7.67;;;8.80;99.90;;;;;;4990852;28;20820;-67
2021/03/04 03:27:40;;;;;;;11.70;9.27;;;8.90;99.90;;;;;;4993089;28;20518;-67
2021/03/04 03:30:23;;;;;;;14.33;8.33;;;8.90;99.90;;;;;;5011175;28;20438;-66
2021/03/04 03:33:02;;;;;;;12.63;7.93;;;8.90;99.90;;;;;;5002254;28;20557;-67
2021/03/04 03:35:30;;;;;;;9.57;8.40;;;8.90;99.90;;;;;;4985648;28;20525;-67
2021/03/04 03:37:58;;;;;;;12.07;8.53;;;8.80;99.90;;;;;;5006961;28;20454;-67
2021/03/04 03:40:28;;;;;;;11.00;8.10;;;8.80;99.90;;;;;;4991151;28;20446;-67
2021/03/04 03:42:56;;;;;;;12.60;7.33;;;8.80;99.90;;;;;;5002328;28;20517;-66
2021/03/04 03:45:26;;;;;;;11.60;7.60;;;8.80;99.90;;;;;;4997601;28;20453;-66
2021/03/04 03:47:53;;;;;;;11.23;6.73;;;8.80;99.90;;;;;;5008178;28;20434;-67
2021/03/04 03:50:20;;;;;;;16.50;8.13;;;8.80;99.90;;;;;;4980448;28;20434;-66
2021/03/04 03:52:47;;;;;;;9.87;7.13;;;8.80;99.90;;;;;;4988977;28;20821;-66
2021/03/04 03:55:14;;;;;;;10.50;7.40;;;8.90;99.90;;;;;;4998871;28;20614;-67
2021/03/04 03:57:41;;;;;;;7.43;6.67;;;8.80;99.90;;;;;;4991869;28;20513;-67
2021/03/04 04:00:08;;;;;;;9.57;8.47;;;8.70;99.90;;;;;;4992290;28;20971;-67
2021/03/04 04:02:35;;;;;;;11.67;8.13;;;8.70;99.90;;;;;;5006457;28;20438;-66
2021/03/04 04:05:01;;;;;;;10.93;7.80;;;8.70;99.90;;;;;;4990632;28;20449;-67
2021/03/04 04:07:30;;;;;;;9.83;7.67;;;8.60;99.90;;;;;;5004140;28;20492;-67
2021/03/04 04:09:56;;;;;;;11.17;8.53;;;8.60;99.90;;;;;;4995121;28;20459;-67
2021/03/04 04:12:23;;;;;;;12.30;9.10;;;8.50;99.90;;;;;;4984219;28;20548;-67
2021/03/04 04:14:49;;;;;;;9.77;8.43;;;8.50;99.90;;;;;;4987843;28;20431;-67
2021/03/04 04:17:16;;;;;;;11.63;8.70;;;8.50;99.90;;;;;;5002182;28;20465;-67
2021/03/04 04:19:42;;;;;;;17.80;8.97;;;8.60;99.90;;;;;;5008607;28;20984;-67
2021/03/04 04:22:08;;;;;;;10.03;8.60;;;8.60;99.90;;;;;;4994859;28;20452;-67
2021/03/04 04:24:33;;;;;;;14.33;9.33;;;8.60;99.90;;;;;;4990520;28;20533;-66
2021/03/04 04:26:59;;;;;;;20.00;7.93;;;8.50;99.90;;;;;;4986750;28;20183;-66
2021/03/04 04:29:24;;;;;;;10.70;8.73;;;8.50;99.90;;;;;;4999790;28;20206;-66
2021/03/04 04:31:50;;;;;;;10.77;8.47;;;8.50;99.90;;;;;;5011048;28;20575;-66
2021/03/04 04:34:15;;;;;;;11.10;7.33;;;8.50;99.90;;;;;;4992687;28;20184;-67
2021/03/04 04:36:41;;;;;;;10.30;8.30;;;8.40;99.90;;;;;;4988542;28;20305;-66
2021/03/04 04:39:06;;;;;;;15.50;8.80;;;8.40;99.90;;;;;;4995112;28;20200;-67
2021/03/04 04:41:32;;;;;;;9.60;8.10;;;8.30;99.90;;;;;;4993996;28;20559;-67
2021/03/04 04:43:58;;;;;;;12.10;8.80;;;8.30;99.90;;;;;;4990345;28;20271;-66
2021/03/04 04:46:23;;;;;;;11.10;8.63;;;8.30;99.90;;;;;;4991391;28;20249;-67
2021/03/04 04:48:49;;;;;;;14.90;9.40;;;8.40;99.90;;;;;;5021947;23;20273;-68
2021/03/04 04:51:14;;;;;;;11.93;8.20;;;8.30;99.90;;;;;;5010892;28;20659;-67
2021/03/04 04:53:41;;;;;;;14.70;9.33;;;8.30;99.90;;;;;;5006863;28;20226;-67
2021/03/04 04:56:07;;;;;;;10.83;8.20;;;8.30;99.90;;;;;;5010127;28;20466;-68
2021/03/04 04:58:33;;;;;;;13.97;9.93;;;8.20;99.90;;;;;;4994037;28;20199;-68
2021/03/04 05:00:59;;;;;;;11.87;8.40;;;8.20;99.90;;;;;;4981519;28;20438;-68
2021/03/04 05:03:24;;;;;;;9.90;8.27;;;8.20;99.90;;;;;;4989994;28;20431;-68
2021/03/04 05:05:50;;;;;;;10.33;8.10;;;8.10;99.90;;;;;;4990355;28;20194;-68
2021/03/04 05:08:15;;;;;;;10.17;7.63;;;8.10;99.90;;;;;;4983079;28;20612;-67
2021/03/04 05:10:41;;;;;;;10.30;7.70;;;8.10;99.90;;;;;;4990081;28;20195;-68
2021/03/04 05:13:06;;;;;;;11.50;7.57;;;8.10;99.90;;;;;;4974437;28;20214;-68
2021/03/04 05:15:32;;;;;;;11.50;6.70;;;8.10;99.90;;;;;;4983729;28;20182;-67
2021/03/04 05:17:58;;;;;;;10.67;7.73;;;8.10;99.90;;;;;;4982916;28;20255;-68
2021/03/04 05:20:23;;;;;;;13.33;9.03;;;7.90;99.90;;;;;;4988732;28;20287;-68
2021/03/04 05:22:49;;;;;;;12.17;8.07;;;7.80;99.90;;;;;;4981350;28;20186;-67
2021/03/04 05:25:14;;;;;;;10.37;6.60;;;7.80;99.90;;;;;;4991648;28;20190;-68
2021/03/04 05:27:40;;;;;;;10.97;7.50;;;7.80;99.90;;;;;;4991357;28;20549;-67
2021/03/04 05:30:06;;;;;;;11.40;8.60;;;7.70;99.90;;;;;;4984170;28;21085;-68
2021/03/04 05:32:32;;;;;;;10.13;7.53;;;7.80;99.90;;;;;;4977880;28;20208;-67
2021/03/04 05:34:58;;;;;;;10.70;8.00;;;7.80;99.90;;;;;;4990210;28;20963;-67
2021/03/04 05:37:23;;;;;;;10.80;8.30;;;7.80;99.90;;;;;;4996727;28;20222;-67
2021/03/04 05:39:49;;;;;;;10.93;9.00;;;7.80;99.90;;;;;;4985625;28;20224;-68
2021/03/04 05:42:15;;;;;;;13.70;8.67;;;7.80;99.90;;;;;;4996682;28;20245;-67
2021/03/04 05:44:42;;;;;;;13.07;8.47;;;7.90;99.90;;;;;;4983531;28;20541;-67
2021/03/04 05:47:09;;;;;;;11.40;7.40;;;7.90;99.90;;;;;;4993673;28;20266;-67
2021/03/04 05:49:47;;;;;;;13.07;7.97;;;7.90;99.90;;;;;;4988582;28;20600;-68
2021/03/04 05:52:16;;;;;;;12.30;8.40;;;7.80;99.90;;;;;;4993186;28;20473;-68
2021/03/04 05:54:44;;;;;;;11.13;8.70;;;7.80;99.90;;;;;;4984900;28;20438;-68
2021/03/04 05:57:10;;;;;;;13.30;9.20;;;7.70;99.90;;;;;;4995994;28;20431;-68
2021/03/04 05:59:37;;;;;;;11.60;9.33;;;7.60;99.90;;;;;;4979240;28;21147;-68
2021/03/04 06:02:05;;;;;;;11.30;9.43;;;7.60;99.90;;;;;;4977815;28;20498;-68
2021/03/04 06:04:31;;;;;;;14.03;9.53;;;7.60;99.90;;;;;;4986592;28;20435;-67
2021/03/04 06:06:57;;;;;;;15.00;8.07;;;7.50;99.90;;;;;;4996573;28;20442;-68
2021/03/04 06:09:23;;;;;;;15.33;9.47;;;7.50;99.90;;;;;;4986606;28;20226;-67
2021/03/04 06:11:48;;;;;;;11.87;10.10;;;7.40;99.90;;;;;;4996818;28;20843;-68
2021/03/04 06:14:15;;;;;;;16.30;10.67;;;7.40;99.90;;;;;;4993314;28;20187;-68
2021/03/04 06:16:40;;;;;;;17.60;13.47;;;7.40;99.90;;;;;;4990496;28;20279;-68
2021/03/04 06:19:16;;;;;;;18.00;14.60;;;7.40;99.90;;;;;;4989273;28;20550;-68
2021/03/04 06:21:41;;;;;;;13.40;9.07;;;7.40;99.90;;;;;;4984635;28;20609;-70
2021/03/04 06:24:13;;;;;;;15.10;8.87;;;7.40;99.90;;;;;;4983459;28;20473;-67
2021/03/04 06:26:39;;;;;;;13.97;10.23;;;7.50;99.90;;;;;;4987603;28;20635;-67
2021/03/04 06:29:19;;;;;;;18.70;12.20;;;7.50;99.90;;;;;;4988200;28;20485;-67
2021/03/04 06:31:57;;;;;;;16.03;8.97;;;7.50;99.90;;;;;;4983747;28;20596;-67
2021/03/04 06:34:23;;;;;;;18.27;10.07;;;7.60;99.90;;;;;;4974727;28;20431;-67
2021/03/04 06:37:00;;;;;;;15.63;10.83;;;7.60;99.90;;;;;;4990331;28;20451;-67
2021/03/04 06:39:45;;;;;;;21.20;11.07;;;7.70;99.90;;;;;;4982977;28;20451;-67
2021/03/04 06:42:12;;;;;;;14.27;10.50;;;7.80;99.90;;;;;;4986255;28;20436;-67
2021/03/04 06:44:39;;;;;;;15.37;10.90;;;7.90;99.90;;;;;;4985440;28;20587;-67
2021/03/04 06:47:07;;;;;;;13.90;10.07;;;8.00;99.90;;;;;;4987092;28;20793;-67
2021/03/04 06:49:42;;;;;;;18.03;11.20;;;8.00;99.90;;;;;;4983496;28;20469;-67
2021/03/04 06:52:09;;;;;;;13.67;10.30;;;8.10;99.90;;;;;;4988849;28;20581;-67
2021/03/04 06:54:35;;;;;;;13.40;10.33;;;8.10;99.90;;;;;;4985527;28;20439;-67
2021/03/04 06:57:27;;;;;;;14.97;10.97;;;8.10;99.90;;;;;;4987808;28;20435;-67
2021/03/04 06:59:53;;;;;;;13.10;9.50;;;8.20;99.90;;;;;;4984814;28;20513;-67
2021/03/04 07:02:29;;;;;;;16.67;11.73;;;8.30;99.90;;;;;;4988100;28;20474;-67
2021/03/04 07:05:00;;;;;;;13.30;9.80;;;8.30;99.90;;;;;;4974756;28;20180;-67
2021/03/04 07:07:27;;;;;;;12.30;9.20;;;8.40;99.90;;;;;;4985307;28;20967;-67
2021/03/04 07:09:58;;;;;;;13.10;9.53;;;8.40;99.90;;;;;;4981017;28;20455;-67
2021/03/04 07:12:25;;;;;;;13.93;8.97;;;8.60;99.90;;;;;;4986746;28;20463;-67
2021/03/04 07:14:52;;;;;;;17.83;10.77;;;8.80;99.90;;;;;;4987276;28;20497;-67
2021/03/04 07:17:20;;;;;;;21.73;16.03;;;9.20;99.90;;;;;;4990250;28;20852;-67
2021/03/04 07:19:54;;;;;;;13.90;10.67;;;9.50;99.90;;;;;;4988029;28;21055;-67
2021/03/04 07:22:21;;;;;;;17.40;10.70;;;9.70;99.90;;;;;;4977781;28;21024;-67
2021/03/04 07:24:47;;;;;;;19.83;12.43;;;10.00;99.90;;;;;;4979992;28;20955;-67
2021/03/04 07:27:14;;;;;;;16.47;12.10;;;10.20;99.90;;;;;;4986822;28;20440;-67
2021/03/04 07:29:44;;;;;;;14.67;10.77;;;10.50;99.90;;;;;;4984741;28;20546;-67
2021/03/04 07:32:15;;;;;;;15.07;11.03;;;10.80;99.90;;;;;;4975745;28;20464;-68
2021/03/04 07:34:42;;;;;;;13.53;10.43;;;11.30;99.90;;;;;;4985933;28;20438;-67
2021/03/04 07:37:09;;;;;;;18.10;10.90;;;11.20;99.90;;;;;;4986631;28;20526;-68
2021/03/04 07:39:39;;;;;;;12.60;10.37;;;11.20;99.90;;;;;;4987585;28;20554;-68
2021/03/04 07:42:19;;;;;;;19.67;11.03;;;11.70;99.90;;;;;;4979543;28;20443;-68
2021/03/04 07:44:45;;;;;;;15.73;9.63;;;12.20;98.90;;;;;;4981039;28;21003;-68
2021/03/04 07:47:10;;;;;;;13.93;10.10;;;12.70;98.10;;;;;;4983348;28;20896;-68
2021/03/04 07:49:44;;;;;;;12.43;11.00;;;13.10;97.90;;;;;;4983786;28;20577;-68
2021/03/04 07:52:23;;;;;;;19.57;11.37;;;13.40;96.30;;;;;;4984199;28;20647;-68
2021/03/04 07:54:51;;;;;;;14.63;10.50;;;13.80;96.20;;;;;;4978438;28;20518;-68
2021/03/04 07:57:23;;;;;;;11.90;10.00;;;14.10;95.20;;;;;;4975668;28;20522;-68
2021/03/04 08:00:04;;;;;;;12.10;9.37;;;14.60;92.70;;;;;;4982563;28;20754;-67
2021/03/04 08:02:34;;;;;;;12.87;8.80;;;14.40;89.10;;;;;;4976981;28;20574;-68
2021/03/04 08:05:15;;;;;;;15.03;9.20;;;14.20;86.60;;;;;;4986547;28;20443;-68
2021/03/04 08:07:49;;;;;;;15.70;9.17;;;14.00;83.70;;;;;;4988626;28;20441;-68
2021/03/04 08:10:15;;;;;;;13.60;8.43;;;14.10;83.00;;;;;;4975412;28;20827;-68
2021/03/04 08:12:58;;;;;;;9.50;8.50;;;14.40;81.20;;;;;;4978721;28;20454;-68
2021/03/04 08:15:33;;;;;;;11.43;9.50;;;14.70;79.60;;;;;;4990377;28;20939;-68
2021/03/04 08:18:00;;;;;;;14.53;10.27;;;14.90;78.40;;;;;;4982619;28;20518;-68
2021/03/04 08:20:25;;;;;;;14.13;9.00;;;15.20;76.20;;;;;;4985876;28;20431;-68
2021/03/04 08:22:56;;;;;;;12.27;9.17;;;14.90;75.60;;;;;;4981780;28;21051;-68
2021/03/04 08:25:23;;;;;;;11.40;9.87;;;14.70;76.60;;;;;;4980430;28;20553;-68
2021/03/04 08:27:56;;;;;;;11.70;9.50;;;14.90;75.50;;;;;;4990179;28;20445;-68
2021/03/04 08:30:37;;;;;;;14.63;10.10;;;15.20;74.50;;;;;;4987597;28;20478;-68
2021/03/04 08:33:08;;;;;;;12.77;9.20;;;14.90;74.00;;;;;;4978637;28;20883;-68
2021/03/04 08:35:40;;;;;;;10.87;9.50;;;15.30;72.50;;;;;;4978546;28;20426;-68
2021/03/04 08:38:08;;;;;;;9.13;8.20;;;15.80;72.50;;;;;;4986550;28;20430;-68
2021/03/04 08:40:53;;;;;;;14.60;9.30;;;16.10;69.10;;;;;;4988991;28;20450;-68
2021/03/04 08:43:19;;;;;;;14.97;9.07;;;16.30;68.20;;;;;;4980511;28;20431;-68
2021/03/04 08:45:50;;;;;;;12.33;9.50;;;16.50;66.50;;;;;;4982183;28;20431;-68
2021/03/04 08:48:15;;;;;;;12.30;11.03;;;16.50;65.60;;;;;;4977050;28;20477;-69
2021/03/04 08:50:46;;;;;;;11.23;9.10;;;16.90;65.90;;;;;;4988391;28;20426;-68
2021/03/04 08:53:17;;;;;;;15.00;9.70;;;17.40;62.40;;;;;;4986709;28;20573;-69
2021/03/04 08:55:50;;;;;;;12.53;10.10;;;17.90;61.10;;;;;;4984590;28;20434;-69
2021/03/04 08:58:17;;;;;;;13.50;9.17;;;17.90;60.30;;;;;;4988310;28;20455;-68
2021/03/04 09:00:50;;;;;;;14.40;10.03;;;17.50;59.90;;;;;;4988374;28;20808;-68
2021/03/04 09:03:17;;;;;;;14.90;9.90;;;16.90;60.50;;;;;;4986934;28;20442;-69
2021/03/04 09:05:43;;;;;;;14.20;11.13;;;16.30;62.30;;;;;;4984601;28;20442;-68
2021/03/04 09:08:10;;;;;;;14.80;11.67;;;16.00;62.70;;;;;;4986338;28;20602;-68
2021/03/04 09:10:40;;;;;;;11.93;10.03;;;16.00;64.20;;;;;;4988588;28;20180;-68
2021/03/04 09:13:06;;;;;;;15.63;10.27;;;16.00;63.20;;;;;;4986123;28;20460;-68
2021/03/04 09:15:32;;;;;;;17.00;9.33;;;15.80;64.60;;;;;;4989620;28;20476;-68
2021/03/04 09:18:04;;;;;;;21.57;10.00;;;16.50;64.00;;;;;;4985106;28;20302;-68
2021/03/04 09:20:30;;;;;;;13.80;9.37;;;17.30;62.00;;;;;;4988611;28;20598;-68
2021/03/04 09:22:56;;;;;;;13.97;10.37;;;17.20;61.70;;;;;;4976481;28;20456;-68
2021/03/04 09:25:21;;;;;;;15.43;11.03;;;17.50;61.00;;;;;;4985723;28;20944;-68
2021/03/04 09:27:47;;;;;;;20.63;11.67;;;18.40;59.60;;;;;;4981096;28;20190;-68
2021/03/04 09:30:27;;;;;;;15.13;11.30;;;19.20;57.40;;;;;;4982698;28;20195;-68
2021/03/04 09:32:54;;;;;;;13.43;11.10;;;19.30;56.20;;;;;;4981004;28;20203;-68
2021/03/04 09:35:19;;;;;;;13.20;11.77;;;18.20;57.40;;;;;;4988079;28;20462;-68
2021/03/04 09:37:45;;;;;;;13.00;10.93;;;17.40;58.60;;;;;;4980149;28;20586;-68
2021/03/04 09:40:25;;;;;;;16.07;12.10;;;16.20;60.60;;;;;;4989015;28;20206;-68
2021/03/04 09:42:51;;;;;;;12.93;10.20;;;16.10;62.50;;;;;;4973606;28;20179;-68
2021/03/04 09:45:17;;;;;;;11.30;9.43;;;17.50;60.30;;;;;;4989157;28;20525;-66
2021/03/04 09:47:47;;;;;;;12.77;10.67;;;19.00;57.50;;;;;;4980748;28;20183;-66
2021/03/04 09:50:25;;;;;;;13.10;9.70;;;20.00;55.60;;;;;;4988395;28;20470;-66
2021/03/04 09:52:59;;;;;;;10.70;8.43;;;20.20;54.40;;;;;;4981802;28;20844;-66
2021/03/04 09:55:25;;;;;;;15.90;9.60;;;21.00;53.40;;;;;;4972105;28;20525;-67
2021/03/04 09:57:50;;;;;;;16.87;10.13;;;21.70;52.30;;;;;;4982225;28;20466;-67
2021/03/04 10:00:16;;;;;;;11.07;8.20;;;21.60;50.90;;;;;;4986678;28;20286;-67
2021/03/04 10:02:47;;;;;;;11.83;9.33;;;22.10;51.10;;;;;;4988137;28;20179;-67
2021/03/04 10:05:16;;;;;;;14.63;11.27;;;23.10;49.60;;;;;;4978986;28;20610;-67
2021/03/04 10:07:41;;;;;;;11.30;9.77;;;23.80;46.70;;;;;;4989339;28;20960;-67
2021/03/04 10:10:21;;;;;;;10.00;8.87;;;24.70;45.20;;;;;;4984994;28;20540;-67
2021/03/04 10:12:54;;;;;;;17.73;10.47;;;26.10;43.80;;;;;;4990889;28;20594;-67
2021/03/04 10:15:27;;;;;;;12.17;9.73;;;27.10;42.10;;;;;;4989720;28;20426;-67
2021/03/04 10:17:54;;;;;;;12.23;9.80;;;26.40;41.00;;;;;;4993273;28;20917;-67
2021/03/04 10:20:20;;;;;;;14.90;9.40;;;26.60;40.50;;;;;;4987356;28;20924;-67
2021/03/04 10:22:45;;;;;;;17.80;9.20;;;27.00;39.70;;;;;;4977664;28;20577;-67
2021/03/04 10:25:11;;;;;;;14.13;10.73;;;26.60;40.20;;;;;;4986398;28;20207;-67
2021/03/04 10:27:37;;;;;;;14.43;10.50;;;27.60;39.00;;;;;;4975467;28;20542;-67
2021/03/04 10:30:09;;;;;;;15.00;9.80;;;27.40;38.30;;;;;;4980543;28;20454;-67
2021/03/04 10:32:35;;;;;;;11.67;9.67;;;27.50;38.20;;;;;;4991785;28;20469;-67
2021/03/04 10:35:01;;;;;;;13.73;9.70;;;27.10;38.40;;;;;;4992437;28;20438;-67
2021/03/04 10:37:27;;;;;;;12.67;10.50;;;27.80;37.90;;;;;;4985865;28;20846;-67
2021/03/04 10:39:52;;;;;;;21.47;11.23;;;27.70;37.60;;;;;;4984555;28;20443;-67
2021/03/04 10:42:18;;;;;;;14.50;11.60;;;27.50;37.90;;;;;;4993366;28;20278;-67
2021/03/04 10:44:43;;;;;;;14.60;11.63;;;27.60;38.00;;;;;;4990613;28;20176;-67
2021/03/04 10:47:09;;;;;;;11.67;10.33;;;26.60;37.90;;;;;;4974946;28;20320;-67
2021/03/04 10:49:34;;;;;;;22.87;12.23;;;26.70;38.30;;;;;;4988322;28;20211;-67
2021/03/04 10:52:00;;;;;;;15.00;11.67;;;27.00;38.10;;;;;;4992491;28;20210;-67
2021/03/04 10:54:25;;;;;;;14.27;11.00;;;27.50;37.50;;;;;;4991525;28;20226;-67
2021/03/04 10:56:51;;;;;;;16.53;11.20;;;27.80;37.20;;;;;;4991031;28;20812;-67
2021/03/04 10:59:16;;;;;;;17.20;12.00;;;27.70;36.80;;;;;;4986274;28;20677;-67
2021/03/04 11:01:42;;;;;;;15.13;11.33;;;27.40;37.30;;;;;;4984224;28;20179;-67
2021/03/04 11:04:07;;;;;;;14.90;10.60;;;28.10;36.80;;;;;;4978873;28;20657;-68
2021/03/04 11:06:33;;;;;;;15.93;10.83;;;29.70;36.00;;;;;;4984023;28;20191;-68
2021/03/04 11:08:58;;;;;;;12.00;10.30;;;29.60;34.10;;;;;;4988158;28;20221;-67
2021/03/04 11:11:24;;;;;;;17.50;10.83;;;29.20;35.10;;;;;;4988494;28;20187;-67
2021/03/04 11:13:49;;;;;;;19.40;10.60;;;29.20;35.30;;;;;;4986213;28;20180;-67
2021/03/04 11:16:16;;;;;;;15.13;9.97;;;27.80;35.70;;;;;;4987220;28;20180;-66
2021/03/04 11:18:41;;;;;;;11.70;10.57;;;27.70;36.30;;;;;;4984963;28;20236;-65
2021/03/04 11:21:07;;;;;;;20.67;12.80;;;28.40;35.30;;;;;;4985515;28;20755;-65
2021/03/04 11:23:32;;;;;;;21.43;16.23;;;27.90;35.20;;;;;;4984712;28;20184;-66
2021/03/04 11:25:59;;;;;;;15.70;10.97;;;27.50;35.80;;;;;;4984587;28;20175;-66
2021/03/04 11:28:24;;;;;;;15.40;11.20;;;28.00;36.20;;;;;;4977258;28;20211;-67
2021/03/04 11:30:50;;;;;;;14.70;11.60;;;28.50;35.70;;;;;;4988674;28;20446;-67
2021/03/04 11:33:15;;;;;;;15.60;12.90;;;27.50;35.90;;;;;;4987371;28;20207;-66
2021/03/04 11:35:41;;;;;;;14.07;11.00;;;25.50;37.50;;;;;;4991598;28;20176;-66
2021/03/04 11:38:06;;;;;;;17.67;10.90;;;24.20;39.60;;;;;;4988667;28;20757;-66
2021/03/04 11:40:32;;;;;;;15.20;10.03;;;23.20;40.60;;;;;;4988869;28;20188;-66
2021/03/04 11:42:57;;;;;;;17.57;10.87;;;22.60;40.90;;;;;;4989318;28;20176;-65
2021/03/04 11:45:23;;;;;;;16.50;11.27;;;22.40;41.40;;;;;;4984900;28;20744;-65
2021/03/04 11:47:48;;;;;;;15.73;10.23;;;21.70;42.30;;;;;;4982814;28;20184;-65
2021/03/04 11:50:14;;;;;;;15.10;11.70;;;22.10;42.60;;;;;;4991580;28;20273;-65
2021/03/04 11:52:39;;;;;;;16.03;11.50;;;23.00;41.70;;;;;;4975627;28;20223;-65
2021/03/04 11:55:05;;;;;;;12.40;10.20;;;23.80;40.50;;;;;;4987344;28;20642;-66
2021/03/04 11:57:31;;;;;;;13.20;11.77;;;24.10;39.80;;;;;;4975870;28;20223;-66
2021/03/04 11:59:57;;;;;;;18.33;11.57;;;24.50;39.10;;;;;;4982673;28;20450;-65
2021/03/04 12:02:24;;;;;;;19.03;9.93;;;23.40;39.80;;;;;;4977698;28;20247;-65
2021/03/04 12:04:51;;;;;;;14.07;11.27;;;22.70;41.00;;;;;;4981020;28;20451;-65
2021/03/04 12:07:17;;;;;;;19.30;11.27;;;23.40;40.70;;;;;;4990041;28;20435;-65
2021/03/04 12:09:43;;;;;;;17.90;11.40;;;24.50;39.40;;;;;;4982040;28;20456;-66
2021/03/04 12:12:08;;;;;;;18.67;11.73;;;24.70;38.70;;;;;;4991130;28;20199;-66
2021/03/04 12:14:34;;;;;;;16.97;11.80;;;24.30;39.00;;;;;;4988811;28;20237;-65
2021/03/04 12:17:00;;;;;;;16.23;11.80;;;23.60;40.10;;;;;;4976949;28;20242;-65
2021/03/04 12:19:25;;;;;;;13.23;10.50;;;23.80;40.10;;;;;;4987106;28;20246;-65
2021/03/04 12:21:51;;;;;;;13.37;10.37;;;23.10;40.50;;;;;;4987073;28;20284;-65
2021/03/04 12:24:16;;;;;;;12.07;10.80;;;23.30;40.60;;;;;;4985400;28;20222;-65
2021/03/04 12:26:43;;;;;;;14.00;10.97;;;23.60;40.30;;;;;;4987239;28;20191;-65
2021/03/04 12:29:08;;;;;;;14.77;10.50;;;23.70;39.60;;;;;;4981002;28;20693;-65
2021/03/04 12:31:34;;;;;;;12.73;10.37;;;23.50;39.70;;;;;;4986541;28;20458;-65
2021/03/04 12:33:59;;;;;;;22.07;12.10;;;23.90;39.80;;;;;;4980448;28;20184;-65
2021/03/04 12:36:25;;;;;;;15.57;11.30;;;24.50;39.30;;;;;;4978416;28;20183;-65
2021/03/04 12:38:50;;;;;;;14.90;11.13;;;23.60;39.70;;;;;;4982240;28;20199;-65
2021/03/04 12:41:16;;;;;;;16.30;10.03;;;22.30;40.90;;;;;;4980613;28;20175;-65
2021/03/04 12:43:41;;;;;;;16.83;10.50;;;21.60;41.90;;;;;;4986660;28;20180;-65